NOZ37H EPKK-ENZV
Flight info
| Callsign | NOZ37H |
|---|---|
| Flight time | 1h 58m |
| Altitude | 36000 |
| Route | LUMVE DCT NUDRO DCT BINKA DCT KOSEB DCT RIVEX |
| Aircraft | B738/M-SDE2E3FGHIRWXY/LB1 |
Departure
| Time | 2026-05-04 19:42 |
|---|---|
| Airport | Kraków John Paul II International Airport (EPKK) |
Arrival
| Time | 2026-05-04 21:41 |
|---|---|
| Airport | Stavanger Airport, Sola (ENZV) |
| Time | Latitude | Longitude | Altitude | Speed | Heading |
|---|---|---|---|---|---|
| 2026-05-04 19:18 | 50.07288 | 19.79888 | 799 ft | 0 kts | 168° |
| 2026-05-04 19:30 | 50.07302 | 19.79883 | 799 ft | 4 kts | 168° |
| 2026-05-04 19:30 | 50.07329 | 19.79874 | 799 ft | 4 kts | 168° |
| 2026-05-04 19:31 | 50.07350 | 19.79867 | 799 ft | 4 kts | 161° |
| 2026-05-04 19:31 | 50.07368 | 19.79847 | 799 ft | 4 kts | 106° |
| 2026-05-04 19:31 | 50.07368 | 19.79810 | 799 ft | 4 kts | 77° |
| 2026-05-04 19:31 | 50.07367 | 19.79801 | 799 ft | 0 kts | 78° |
| 2026-05-04 19:34 | 50.07369 | 19.79815 | 799 ft | 5 kts | 78° |
| 2026-05-04 19:34 | 50.07380 | 19.79895 | 799 ft | 9 kts | 78° |
| 2026-05-04 19:34 | 50.07397 | 19.80016 | 799 ft | 14 kts | 77° |
| 2026-05-04 19:34 | 50.07421 | 19.80178 | 799 ft | 16 kts | 77° |
| 2026-05-04 19:35 | 50.07446 | 19.80341 | 799 ft | 15 kts | 64° |
| 2026-05-04 19:35 | 50.07537 | 19.80407 | 799 ft | 15 kts | 16° |
| 2026-05-04 19:35 | 50.07630 | 19.80408 | 799 ft | 11 kts | 347° |
| 2026-05-04 19:35 | 50.07706 | 19.80382 | 799 ft | 11 kts | 347° |
| 2026-05-04 19:36 | 50.07780 | 19.80358 | 799 ft | 11 kts | 348° |
| 2026-05-04 19:36 | 50.07828 | 19.80342 | 799 ft | 0 kts | 348° |
| 2026-05-04 19:41 | 50.07835 | 19.80340 | 799 ft | 5 kts | 348° |
| 2026-05-04 19:41 | 50.07903 | 19.80318 | 799 ft | 15 kts | 348° |
| 2026-05-04 19:41 | 50.08008 | 19.80244 | 799 ft | 17 kts | 294° |
| 2026-05-04 19:41 | 50.07994 | 19.80059 | 800 ft | 23 kts | 258° |
| 2026-05-04 19:42 | 50.07900 | 19.79387 | 799 ft | 99 kts | 257° |
| 2026-05-04 19:42 | 50.07707 | 19.78015 | 798 ft | 158 kts | 257° |
| 2026-05-04 19:42 | 50.07537 | 19.76823 | 984 ft | 177 kts | 258° |
| 2026-05-04 19:42 | 50.07221 | 19.74345 | 2115 ft | 174 kts | 255° |
| 2026-05-04 19:43 | 50.06947 | 19.72441 | 2745 ft | 193 kts | 255° |
| 2026-05-04 19:43 | 50.06740 | 19.71000 | 2915 ft | 211 kts | 255° |
| 2026-05-04 19:43 | 50.06416 | 19.67893 | 3633 ft | 227 kts | 272° |
| 2026-05-04 19:43 | 50.07067 | 19.65568 | 4209 ft | 248 kts | 301° |
| 2026-05-04 19:44 | 50.07783 | 19.64068 | 4567 ft | 260 kts | 303° |
| 2026-05-04 19:44 | 50.08889 | 19.61808 | 5405 ft | 264 kts | 304° |
| 2026-05-04 19:44 | 50.10011 | 19.59525 | 6268 ft | 267 kts | 305° |
| 2026-05-04 19:44 | 50.11144 | 19.57210 | 7082 ft | 271 kts | 304° |
| 2026-05-04 19:45 | 50.12293 | 19.54840 | 7847 ft | 276 kts | 304° |
| 2026-05-04 19:45 | 50.13439 | 19.52466 | 8652 ft | 280 kts | 304° |
| 2026-05-04 19:45 | 50.14614 | 19.50024 | 9483 ft | 284 kts | 304° |
| 2026-05-04 19:45 | 50.15819 | 19.47507 | 10257 ft | 289 kts | 303° |
| 2026-05-04 19:46 | 50.17041 | 19.44938 | 10542 ft | 312 kts | 303° |
| 2026-05-04 19:46 | 50.18380 | 19.42114 | 10747 ft | 335 kts | 303° |
| 2026-05-04 19:46 | 50.19789 | 19.39141 | 11261 ft | 345 kts | 303° |
| 2026-05-04 19:46 | 50.21224 | 19.36115 | 12012 ft | 348 kts | 303° |
| 2026-05-04 19:47 | 50.22668 | 19.33069 | 12789 ft | 350 kts | 303° |
| 2026-05-04 19:47 | 50.24124 | 19.29992 | 13561 ft | 353 kts | 302° |
| 2026-05-04 19:47 | 50.25589 | 19.26887 | 14241 ft | 357 kts | 302° |
| 2026-05-04 19:47 | 50.27068 | 19.23750 | 14910 ft | 360 kts | 302° |
| 2026-05-04 19:48 | 50.28560 | 19.20579 | 15579 ft | 364 kts | 303° |
| 2026-05-04 19:48 | 50.30065 | 19.17377 | 16261 ft | 367 kts | 303° |
| 2026-05-04 19:48 | 50.31580 | 19.14150 | 16928 ft | 370 kts | 303° |
| 2026-05-04 19:48 | 50.33107 | 19.10891 | 17581 ft | 373 kts | 303° |
| 2026-05-04 19:49 | 50.34648 | 19.07600 | 18228 ft | 376 kts | 303° |
| 2026-05-04 19:49 | 50.36201 | 19.04277 | 18786 ft | 380 kts | 303° |
| 2026-05-04 19:49 | 50.37767 | 19.00923 | 19338 ft | 383 kts | 304° |
| 2026-05-04 19:49 | 50.39345 | 18.97540 | 19892 ft | 386 kts | 304° |
| 2026-05-04 19:50 | 50.40933 | 18.94130 | 20426 ft | 389 kts | 304° |
| 2026-05-04 19:50 | 50.42533 | 18.90691 | 20953 ft | 392 kts | 304° |
| 2026-05-04 19:50 | 50.44145 | 18.87222 | 21471 ft | 395 kts | 304° |
| 2026-05-04 19:50 | 50.45770 | 18.83719 | 21986 ft | 398 kts | 304° |
| 2026-05-04 19:51 | 50.47403 | 18.80193 | 22499 ft | 401 kts | 304° |
| 2026-05-04 19:51 | 50.49048 | 18.76637 | 23002 ft | 404 kts | 304° |
| 2026-05-04 19:51 | 50.50704 | 18.73052 | 23474 ft | 407 kts | 304° |
| 2026-05-04 19:51 | 50.52370 | 18.69441 | 23892 ft | 409 kts | 304° |
| 2026-05-04 19:52 | 50.54043 | 18.65810 | 24340 ft | 411 kts | 304° |
| 2026-05-04 19:52 | 50.55720 | 18.62166 | 24798 ft | 412 kts | 304° |
| 2026-05-04 19:52 | 50.57402 | 18.58506 | 25215 ft | 413 kts | 304° |
| 2026-05-04 19:52 | 50.59088 | 18.54831 | 25610 ft | 416 kts | 304° |
| 2026-05-04 19:53 | 50.60781 | 18.51133 | 25992 ft | 418 kts | 304° |
| 2026-05-04 19:53 | 50.62484 | 18.47413 | 26383 ft | 420 kts | 304° |
| 2026-05-04 19:53 | 50.64191 | 18.43675 | 26767 ft | 421 kts | 304° |
| 2026-05-04 19:53 | 50.65905 | 18.39917 | 27144 ft | 423 kts | 304° |
| 2026-05-04 19:54 | 50.67625 | 18.36142 | 27513 ft | 425 kts | 304° |
| 2026-05-04 19:54 | 50.69350 | 18.32350 | 27876 ft | 427 kts | 304° |
| 2026-05-04 19:54 | 50.71267 | 18.28763 | 28231 ft | 430 kts | 314° |
| 2026-05-04 19:54 | 50.73574 | 18.25738 | 28611 ft | 432 kts | 321° |
| 2026-05-04 19:55 | 50.75982 | 18.22883 | 28957 ft | 434 kts | 321° |
| 2026-05-04 19:55 | 50.78405 | 18.20019 | 29274 ft | 436 kts | 321° |
| 2026-05-04 19:55 | 50.80836 | 18.17130 | 29589 ft | 438 kts | 321° |
| 2026-05-04 19:55 | 50.83261 | 18.14229 | 30025 ft | 436 kts | 321° |
| 2026-05-04 19:56 | 50.85672 | 18.11329 | 30450 ft | 434 kts | 320° |
| 2026-05-04 19:56 | 50.88071 | 18.08428 | 30784 ft | 434 kts | 320° |
| 2026-05-04 19:56 | 50.90458 | 18.05530 | 31191 ft | 432 kts | 320° |
| 2026-05-04 19:56 | 50.92835 | 18.02639 | 31598 ft | 429 kts | 320° |
| 2026-05-04 19:57 | 50.95202 | 17.99754 | 31951 ft | 429 kts | 320° |
| 2026-05-04 19:57 | 50.97563 | 17.96870 | 32278 ft | 428 kts | 320° |
| 2026-05-04 19:57 | 50.99918 | 17.93992 | 32627 ft | 427 kts | 320° |
| 2026-05-04 19:57 | 51.02235 | 17.91155 | 32988 ft | 425 kts | 320° |
| 2026-05-04 19:58 | 51.04576 | 17.88287 | 33338 ft | 424 kts | 320° |
| 2026-05-04 19:58 | 51.06941 | 17.85385 | 33657 ft | 424 kts | 320° |
| 2026-05-04 19:58 | 51.09242 | 17.82558 | 33970 ft | 423 kts | 320° |
| 2026-05-04 19:58 | 51.11566 | 17.79699 | 34248 ft | 422 kts | 319° |
| 2026-05-04 19:59 | 51.13890 | 17.76837 | 34454 ft | 423 kts | 319° |
| 2026-05-04 19:59 | 51.16220 | 17.73962 | 34673 ft | 423 kts | 319° |
| 2026-05-04 19:59 | 51.18543 | 17.71094 | 35003 ft | 421 kts | 319° |
| 2026-05-04 19:59 | 51.20849 | 17.68243 | 35330 ft | 419 kts | 319° |
| 2026-05-04 20:00 | 51.23153 | 17.65391 | 35517 ft | 420 kts | 319° |
| 2026-05-04 20:00 | 51.25463 | 17.62528 | 35682 ft | 421 kts | 319° |
| 2026-05-04 20:00 | 51.27776 | 17.59655 | 35911 ft | 421 kts | 319° |
| 2026-05-04 20:01 | 51.32425 | 17.53870 | 35945 ft | 425 kts | 319° |
| 2026-05-04 20:01 | 51.37081 | 17.48064 | 35928 ft | 421 kts | 319° |
| 2026-05-04 20:02 | 51.41673 | 17.42326 | 35935 ft | 417 kts | 319° |
| 2026-05-04 20:02 | 51.46231 | 17.36611 | 35940 ft | 415 kts | 319° |
| 2026-05-04 20:03 | 51.50771 | 17.30904 | 35944 ft | 414 kts | 319° |
| 2026-05-04 20:03 | 51.55302 | 17.25194 | 35936 ft | 414 kts | 319° |
| 2026-05-04 20:04 | 51.59833 | 17.19468 | 35940 ft | 414 kts | 319° |
| 2026-05-04 20:04 | 51.64368 | 17.13722 | 35952 ft | 415 kts | 318° |
| 2026-05-04 20:05 | 51.68913 | 17.07949 | 35941 ft | 417 kts | 318° |
| 2026-05-04 20:05 | 51.73467 | 17.02150 | 35941 ft | 418 kts | 318° |
| 2026-05-04 20:06 | 51.78034 | 16.96317 | 35952 ft | 419 kts | 318° |
| 2026-05-04 20:06 | 51.82583 | 16.90494 | 35940 ft | 420 kts | 318° |
| 2026-05-04 20:07 | 51.87168 | 16.84609 | 35936 ft | 421 kts | 318° |
| 2026-05-04 20:07 | 51.91755 | 16.78705 | 35954 ft | 421 kts | 317° |
| 2026-05-04 20:08 | 51.96340 | 16.72788 | 35936 ft | 421 kts | 317° |
| 2026-05-04 20:08 | 52.00918 | 16.66864 | 35939 ft | 420 kts | 317° |
| 2026-05-04 20:09 | 52.05483 | 16.60941 | 35940 ft | 420 kts | 317° |
| 2026-05-04 20:09 | 52.10037 | 16.55016 | 35955 ft | 419 kts | 317° |
| 2026-05-04 20:10 | 52.14580 | 16.49090 | 35939 ft | 418 kts | 317° |
| 2026-05-04 20:10 | 52.19110 | 16.43166 | 35952 ft | 417 kts | 317° |
| 2026-05-04 20:11 | 52.23627 | 16.37241 | 35943 ft | 416 kts | 317° |
| 2026-05-04 20:11 | 52.28129 | 16.31320 | 35944 ft | 415 kts | 316° |
| 2026-05-04 20:12 | 52.32621 | 16.25397 | 35946 ft | 414 kts | 316° |
| 2026-05-04 20:12 | 52.37100 | 16.19473 | 35945 ft | 414 kts | 316° |
| 2026-05-04 20:13 | 52.41570 | 16.13547 | 35947 ft | 414 kts | 316° |
| 2026-05-04 20:13 | 52.46047 | 16.07595 | 35934 ft | 414 kts | 316° |
| 2026-05-04 20:14 | 52.50520 | 16.01632 | 35953 ft | 415 kts | 316° |
| 2026-05-04 20:14 | 52.55001 | 15.95642 | 35953 ft | 416 kts | 316° |
| 2026-05-04 20:15 | 52.59491 | 15.89624 | 35955 ft | 417 kts | 316° |
| 2026-05-04 20:15 | 52.63989 | 15.83579 | 35955 ft | 418 kts | 316° |
| 2026-05-04 20:16 | 52.68493 | 15.77509 | 35959 ft | 419 kts | 316° |
| 2026-05-04 20:16 | 52.73003 | 15.71415 | 35961 ft | 420 kts | 316° |
| 2026-05-04 20:17 | 52.77525 | 15.65288 | 35958 ft | 421 kts | 316° |
| 2026-05-04 20:17 | 52.82051 | 15.59138 | 35955 ft | 421 kts | 316° |
| 2026-05-04 20:18 | 52.86575 | 15.52976 | 35958 ft | 421 kts | 316° |
| 2026-05-04 20:18 | 52.91061 | 15.46846 | 35957 ft | 421 kts | 316° |
| 2026-05-04 20:19 | 52.95569 | 15.40668 | 35957 ft | 420 kts | 315° |
| 2026-05-04 20:19 | 53.00073 | 15.34481 | 35977 ft | 420 kts | 315° |
| 2026-05-04 20:20 | 53.04566 | 15.28289 | 35965 ft | 419 kts | 315° |
| 2026-05-04 20:20 | 53.09042 | 15.22106 | 35964 ft | 417 kts | 315° |
| 2026-05-04 20:21 | 53.13496 | 15.15934 | 35958 ft | 416 kts | 315° |
| 2026-05-04 20:21 | 53.20135 | 15.06704 | 35968 ft | 413 kts | 315° |
| 2026-05-04 20:22 | 53.24536 | 15.00563 | 35970 ft | 412 kts | 315° |
| 2026-05-04 20:22 | 53.28922 | 14.94426 | 35970 ft | 411 kts | 315° |
| 2026-05-04 20:23 | 53.33301 | 14.88281 | 35984 ft | 411 kts | 315° |
| 2026-05-04 20:23 | 53.37676 | 14.82125 | 35975 ft | 411 kts | 315° |
| 2026-05-04 20:24 | 53.42050 | 14.75953 | 35976 ft | 411 kts | 315° |
| 2026-05-04 20:24 | 53.46425 | 14.69762 | 35988 ft | 412 kts | 315° |
| 2026-05-04 20:25 | 53.50804 | 14.63550 | 35990 ft | 412 kts | 315° |
| 2026-05-04 20:25 | 53.55189 | 14.57311 | 35995 ft | 413 kts | 314° |
| 2026-05-04 20:26 | 53.59549 | 14.51089 | 35987 ft | 414 kts | 314° |
| 2026-05-04 20:26 | 53.63944 | 14.44801 | 35999 ft | 415 kts | 315° |
| 2026-05-04 20:27 | 53.68342 | 14.38490 | 35977 ft | 415 kts | 315° |
| 2026-05-04 20:27 | 53.72740 | 14.32164 | 35971 ft | 415 kts | 314° |
| 2026-05-04 20:28 | 53.77115 | 14.25810 | 35967 ft | 414 kts | 313° |
| 2026-05-04 20:28 | 53.81316 | 14.19181 | 35972 ft | 413 kts | 311° |
| 2026-05-04 20:29 | 53.85464 | 14.12469 | 35966 ft | 412 kts | 311° |
| 2026-05-04 20:29 | 53.89618 | 14.05774 | 35983 ft | 412 kts | 311° |
| 2026-05-04 20:30 | 53.93779 | 13.99088 | 36004 ft | 412 kts | 312° |
| 2026-05-04 20:30 | 53.97937 | 13.92402 | 35984 ft | 412 kts | 311° |
| 2026-05-04 20:31 | 54.02094 | 13.85704 | 35985 ft | 412 kts | 311° |
| 2026-05-04 20:31 | 54.06243 | 13.78996 | 35978 ft | 412 kts | 311° |
| 2026-05-04 20:32 | 54.09691 | 13.73407 | 35984 ft | 412 kts | 311° |
| 2026-05-04 20:32 | 54.13836 | 13.66670 | 35983 ft | 412 kts | 311° |
| 2026-05-04 20:33 | 54.17985 | 13.59907 | 35984 ft | 412 kts | 311° |
| 2026-05-04 20:33 | 54.22130 | 13.53130 | 35979 ft | 413 kts | 311° |
| 2026-05-04 20:34 | 54.26277 | 13.46330 | 36011 ft | 414 kts | 311° |
| 2026-05-04 20:34 | 54.30433 | 13.39496 | 35995 ft | 414 kts | 311° |
| 2026-05-04 20:35 | 54.34591 | 13.32637 | 35979 ft | 415 kts | 311° |
| 2026-05-04 20:35 | 54.38751 | 13.25757 | 35977 ft | 415 kts | 311° |
| 2026-05-04 20:36 | 54.42904 | 13.18866 | 35977 ft | 415 kts | 311° |
| 2026-05-04 20:36 | 54.47056 | 13.11958 | 35978 ft | 415 kts | 311° |
| 2026-05-04 20:37 | 54.51201 | 13.05040 | 35975 ft | 415 kts | 311° |
| 2026-05-04 20:37 | 54.55309 | 12.98163 | 35993 ft | 415 kts | 311° |
| 2026-05-04 20:38 | 54.59439 | 12.91227 | 35974 ft | 415 kts | 311° |
| 2026-05-04 20:38 | 54.63573 | 12.84266 | 35969 ft | 415 kts | 311° |
| 2026-05-04 20:39 | 54.67693 | 12.77307 | 35983 ft | 414 kts | 311° |
| 2026-05-04 20:39 | 54.71808 | 12.70334 | 35962 ft | 414 kts | 311° |
| 2026-05-04 20:40 | 54.75911 | 12.63364 | 35966 ft | 413 kts | 311° |
| 2026-05-04 20:40 | 54.80100 | 12.56534 | 35979 ft | 415 kts | 314° |
| 2026-05-04 20:41 | 54.84522 | 12.50075 | 35966 ft | 416 kts | 315° |
| 2026-05-04 20:41 | 54.88971 | 12.43657 | 35994 ft | 416 kts | 315° |
| 2026-05-04 20:42 | 54.93408 | 12.37183 | 35974 ft | 417 kts | 315° |
| 2026-05-04 20:42 | 54.97840 | 12.30654 | 35970 ft | 418 kts | 315° |
| 2026-05-04 20:43 | 55.02270 | 12.24091 | 35967 ft | 419 kts | 315° |
| 2026-05-04 20:43 | 55.06707 | 12.17497 | 35968 ft | 419 kts | 315° |
| 2026-05-04 20:44 | 55.11145 | 12.10880 | 35965 ft | 420 kts | 315° |
| 2026-05-04 20:44 | 55.15587 | 12.04240 | 35970 ft | 420 kts | 315° |
| 2026-05-04 20:45 | 55.20031 | 11.97575 | 35985 ft | 421 kts | 316° |
| 2026-05-04 20:45 | 55.24480 | 11.90881 | 35975 ft | 422 kts | 316° |
| 2026-05-04 20:46 | 55.28938 | 11.84155 | 35967 ft | 423 kts | 316° |
| 2026-05-04 20:46 | 55.33371 | 11.77446 | 35970 ft | 424 kts | 316° |
| 2026-05-04 20:47 | 55.37833 | 11.70673 | 35968 ft | 424 kts | 316° |
| 2026-05-04 20:47 | 55.42296 | 11.63877 | 35963 ft | 425 kts | 316° |
| 2026-05-04 20:48 | 55.46758 | 11.57060 | 35970 ft | 425 kts | 316° |
| 2026-05-04 20:48 | 55.51222 | 11.50220 | 35968 ft | 425 kts | 316° |
| 2026-05-04 20:49 | 55.55683 | 11.43363 | 35972 ft | 425 kts | 316° |
| 2026-05-04 20:49 | 55.60134 | 11.36499 | 35969 ft | 425 kts | 315° |
| 2026-05-04 20:50 | 55.64588 | 11.29611 | 35969 ft | 425 kts | 315° |
| 2026-05-04 20:50 | 55.69030 | 11.22718 | 35972 ft | 425 kts | 315° |
| 2026-05-04 20:51 | 55.73468 | 11.15810 | 35973 ft | 424 kts | 315° |
| 2026-05-04 20:51 | 55.77900 | 11.08890 | 35972 ft | 424 kts | 315° |
| 2026-05-04 20:52 | 55.82326 | 11.01956 | 35993 ft | 424 kts | 315° |
| 2026-05-04 20:52 | 55.86746 | 10.95011 | 35975 ft | 424 kts | 315° |
| 2026-05-04 20:53 | 55.91155 | 10.88061 | 35973 ft | 423 kts | 315° |
| 2026-05-04 20:53 | 55.95549 | 10.81114 | 35968 ft | 422 kts | 315° |
| 2026-05-04 20:54 | 55.99928 | 10.74167 | 35971 ft | 421 kts | 315° |
| 2026-05-04 20:54 | 56.04293 | 10.67222 | 35977 ft | 420 kts | 315° |
| 2026-05-04 20:55 | 56.08645 | 10.60273 | 35975 ft | 419 kts | 315° |
| 2026-05-04 20:55 | 56.12989 | 10.53317 | 36001 ft | 418 kts | 315° |
| 2026-05-04 20:56 | 56.17325 | 10.46350 | 35984 ft | 418 kts | 314° |
| 2026-05-04 20:56 | 56.21651 | 10.39378 | 35974 ft | 418 kts | 314° |
| 2026-05-04 20:57 | 56.25967 | 10.32402 | 35979 ft | 417 kts | 314° |
| 2026-05-04 20:57 | 56.30271 | 10.25422 | 35975 ft | 416 kts | 314° |
| 2026-05-04 20:58 | 56.34571 | 10.18426 | 35973 ft | 416 kts | 314° |
| 2026-05-04 20:58 | 56.38831 | 10.11472 | 35980 ft | 416 kts | 314° |
| 2026-05-04 20:59 | 56.43117 | 10.04456 | 35977 ft | 416 kts | 314° |
| 2026-05-04 20:59 | 56.47394 | 9.97430 | 35982 ft | 416 kts | 314° |
| 2026-05-04 21:00 | 56.51674 | 9.90378 | 35983 ft | 416 kts | 314° |
| 2026-05-04 21:00 | 56.55951 | 9.83309 | 35988 ft | 416 kts | 314° |
| 2026-05-04 21:01 | 56.60224 | 9.76223 | 35975 ft | 416 kts | 314° |
| 2026-05-04 21:01 | 56.64493 | 9.69121 | 35976 ft | 416 kts | 314° |
| 2026-05-04 21:02 | 56.68757 | 9.62006 | 35971 ft | 416 kts | 313° |
| 2026-05-04 21:02 | 56.73013 | 9.54880 | 35971 ft | 415 kts | 313° |
| 2026-05-04 21:03 | 56.77261 | 9.47743 | 35969 ft | 415 kts | 313° |
| 2026-05-04 21:03 | 56.81501 | 9.40600 | 35965 ft | 414 kts | 313° |
| 2026-05-04 21:04 | 56.85725 | 9.33459 | 35962 ft | 413 kts | 313° |
| 2026-05-04 21:04 | 56.89933 | 9.26322 | 35963 ft | 412 kts | 313° |
| 2026-05-04 21:05 | 56.94123 | 9.19194 | 35961 ft | 411 kts | 313° |
| 2026-05-04 21:05 | 56.98299 | 9.12065 | 35963 ft | 409 kts | 313° |
| 2026-05-04 21:06 | 57.02457 | 9.04945 | 35958 ft | 409 kts | 313° |
| 2026-05-04 21:06 | 57.06604 | 8.97820 | 36007 ft | 408 kts | 312° |
| 2026-05-04 21:07 | 57.10748 | 8.90677 | 35970 ft | 408 kts | 312° |
| 2026-05-04 21:07 | 57.14885 | 8.83524 | 35963 ft | 408 kts | 312° |
| 2026-05-04 21:08 | 57.19009 | 8.76371 | 35953 ft | 407 kts | 311° |
| 2026-05-04 21:08 | 57.23124 | 8.69210 | 35951 ft | 406 kts | 311° |
| 2026-05-04 21:09 | 57.27226 | 8.62049 | 35952 ft | 406 kts | 311° |
| 2026-05-04 21:09 | 57.31229 | 8.54851 | 35791 ft | 393 kts | 310° |
| 2026-05-04 21:10 | 57.33132 | 8.51273 | 35404 ft | 388 kts | 309° |
| 2026-05-04 21:10 | 57.35015 | 8.47698 | 34921 ft | 387 kts | 309° |
| 2026-05-04 21:10 | 57.36890 | 8.44130 | 34484 ft | 385 kts | 309° |
| 2026-05-04 21:10 | 57.38752 | 8.40598 | 34205 ft | 380 kts | 308° |
| 2026-05-04 21:11 | 57.40588 | 8.37119 | 33891 ft | 375 kts | 308° |
| 2026-05-04 21:11 | 57.42407 | 8.33672 | 33424 ft | 373 kts | 308° |
| 2026-05-04 21:11 | 57.44214 | 8.30245 | 32930 ft | 371 kts | 308° |
| 2026-05-04 21:11 | 57.46013 | 8.26833 | 32451 ft | 368 kts | 308° |
| 2026-05-04 21:12 | 57.47800 | 8.23439 | 31986 ft | 367 kts | 308° |
| 2026-05-04 21:12 | 57.49579 | 8.20055 | 31527 ft | 365 kts | 308° |
| 2026-05-04 21:12 | 57.51353 | 8.16676 | 31071 ft | 364 kts | 307° |
| 2026-05-04 21:12 | 57.53120 | 8.13308 | 30627 ft | 363 kts | 307° |
| 2026-05-04 21:13 | 57.54858 | 8.09989 | 30197 ft | 362 kts | 307° |
| 2026-05-04 21:13 | 57.56611 | 8.06637 | 29708 ft | 361 kts | 307° |
| 2026-05-04 21:13 | 57.58356 | 8.03298 | 29201 ft | 359 kts | 307° |
| 2026-05-04 21:13 | 57.60091 | 7.99972 | 28687 ft | 357 kts | 307° |
| 2026-05-04 21:14 | 57.61816 | 7.96660 | 28203 ft | 355 kts | 307° |
| 2026-05-04 21:14 | 57.63530 | 7.93365 | 27718 ft | 353 kts | 307° |
| 2026-05-04 21:14 | 57.65235 | 7.90083 | 27243 ft | 351 kts | 307° |
| 2026-05-04 21:14 | 57.66930 | 7.86814 | 26723 ft | 351 kts | 308° |
| 2026-05-04 21:15 | 57.68620 | 7.83551 | 26360 ft | 347 kts | 307° |
| 2026-05-04 21:15 | 57.70287 | 7.80328 | 25946 ft | 344 kts | 307° |
| 2026-05-04 21:15 | 57.71941 | 7.77128 | 25570 ft | 340 kts | 307° |
| 2026-05-04 21:15 | 57.73577 | 7.73957 | 25209 ft | 337 kts | 307° |
| 2026-05-04 21:16 | 57.75194 | 7.70818 | 24853 ft | 333 kts | 307° |
| 2026-05-04 21:16 | 57.76792 | 7.67711 | 24503 ft | 330 kts | 307° |
| 2026-05-04 21:16 | 57.78376 | 7.64627 | 24151 ft | 327 kts | 307° |
| 2026-05-04 21:16 | 57.79943 | 7.61572 | 23815 ft | 324 kts | 307° |
| 2026-05-04 21:17 | 57.81496 | 7.58540 | 23458 ft | 321 kts | 307° |
| 2026-05-04 21:17 | 57.83033 | 7.55533 | 23064 ft | 318 kts | 307° |
| 2026-05-04 21:17 | 57.84552 | 7.52561 | 22738 ft | 314 kts | 307° |
| 2026-05-04 21:17 | 57.86053 | 7.49620 | 22395 ft | 310 kts | 307° |
| 2026-05-04 21:18 | 57.87533 | 7.46717 | 22067 ft | 306 kts | 307° |
| 2026-05-04 21:18 | 57.88994 | 7.43844 | 21744 ft | 302 kts | 307° |
| 2026-05-04 21:18 | 57.90439 | 7.41002 | 21424 ft | 299 kts | 307° |
| 2026-05-04 21:18 | 57.91866 | 7.38189 | 21091 ft | 296 kts | 307° |
| 2026-05-04 21:19 | 57.93280 | 7.35401 | 20783 ft | 293 kts | 307° |
| 2026-05-04 21:19 | 57.94207 | 7.33570 | 20586 ft | 291 kts | 307° |
| 2026-05-04 21:19 | 57.95597 | 7.30822 | 20267 ft | 288 kts | 307° |
| 2026-05-04 21:19 | 57.96976 | 7.28093 | 19958 ft | 286 kts | 307° |
| 2026-05-04 21:20 | 57.98341 | 7.25388 | 19656 ft | 284 kts | 307° |
| 2026-05-04 21:20 | 57.99694 | 7.22703 | 19390 ft | 281 kts | 307° |
| 2026-05-04 21:20 | 58.01035 | 7.20039 | 19081 ft | 279 kts | 307° |
| 2026-05-04 21:20 | 58.02797 | 7.16536 | 18678 ft | 277 kts | 307° |
| 2026-05-04 21:21 | 58.03688 | 7.14760 | 18474 ft | 275 kts | 307° |
| 2026-05-04 21:21 | 58.05001 | 7.12145 | 18181 ft | 273 kts | 307° |
| 2026-05-04 21:21 | 58.06304 | 7.09546 | 17840 ft | 271 kts | 307° |
| 2026-05-04 21:21 | 58.07592 | 7.06975 | 17565 ft | 268 kts | 307° |
| 2026-05-04 21:22 | 58.08865 | 7.04426 | 17283 ft | 265 kts | 307° |
| 2026-05-04 21:22 | 58.10123 | 7.01909 | 16958 ft | 263 kts | 307° |
| 2026-05-04 21:22 | 58.11370 | 6.99412 | 16690 ft | 261 kts | 307° |
| 2026-05-04 21:22 | 58.12618 | 6.96906 | 16414 ft | 262 kts | 307° |
| 2026-05-04 21:23 | 58.13876 | 6.94373 | 16127 ft | 268 kts | 307° |
| 2026-05-04 21:23 | 58.15169 | 6.91764 | 15829 ft | 275 kts | 307° |
| 2026-05-04 21:23 | 58.16485 | 6.89113 | 15527 ft | 276 kts | 307° |
| 2026-05-04 21:23 | 58.17798 | 6.86469 | 15224 ft | 274 kts | 307° |
| 2026-05-04 21:24 | 58.19101 | 6.83845 | 14911 ft | 272 kts | 307° |
| 2026-05-04 21:24 | 58.20393 | 6.81237 | 14618 ft | 271 kts | 307° |
| 2026-05-04 21:24 | 58.21678 | 6.78641 | 14329 ft | 269 kts | 307° |
| 2026-05-04 21:24 | 58.22953 | 6.76065 | 14051 ft | 267 kts | 307° |
| 2026-05-04 21:25 | 58.24218 | 6.73501 | 13757 ft | 265 kts | 307° |
| 2026-05-04 21:25 | 58.25456 | 6.70990 | 13441 ft | 263 kts | 307° |
| 2026-05-04 21:25 | 58.26704 | 6.68457 | 13165 ft | 261 kts | 307° |
| 2026-05-04 21:25 | 58.27957 | 6.65911 | 12856 ft | 259 kts | 307° |
| 2026-05-04 21:26 | 58.29163 | 6.63457 | 12566 ft | 256 kts | 307° |
| 2026-05-04 21:26 | 58.30386 | 6.60967 | 12299 ft | 252 kts | 307° |
| 2026-05-04 21:26 | 58.31562 | 6.58562 | 12063 ft | 251 kts | 307° |
| 2026-05-04 21:26 | 58.32747 | 6.56150 | 11804 ft | 247 kts | 307° |
| 2026-05-04 21:27 | 58.33912 | 6.53773 | 11493 ft | 245 kts | 307° |
| 2026-05-04 21:27 | 58.35083 | 6.51376 | 11198 ft | 243 kts | 306° |
| 2026-05-04 21:27 | 58.36208 | 6.49070 | 10952 ft | 240 kts | 307° |
| 2026-05-04 21:27 | 58.37343 | 6.46742 | 10691 ft | 239 kts | 307° |
| 2026-05-04 21:28 | 58.38475 | 6.44423 | 10420 ft | 238 kts | 307° |
| 2026-05-04 21:28 | 58.39597 | 6.42113 | 10151 ft | 237 kts | 307° |
| 2026-05-04 21:28 | 58.40698 | 6.39852 | 10060 ft | 229 kts | 307° |
| 2026-05-04 21:28 | 58.41757 | 6.37675 | 9980 ft | 219 kts | 306° |
| 2026-05-04 21:29 | 58.42799 | 6.35523 | 9736 ft | 222 kts | 306° |
| 2026-05-04 21:29 | 58.43860 | 6.33326 | 9485 ft | 229 kts | 307° |
| 2026-05-04 21:29 | 58.44947 | 6.31070 | 9223 ft | 232 kts | 307° |
| 2026-05-04 21:29 | 58.46048 | 6.28793 | 8949 ft | 235 kts | 308° |
| 2026-05-04 21:30 | 58.47150 | 6.26515 | 8684 ft | 233 kts | 308° |
| 2026-05-04 21:30 | 58.48239 | 6.24265 | 8441 ft | 229 kts | 308° |
| 2026-05-04 21:30 | 58.49314 | 6.22038 | 8184 ft | 227 kts | 308° |
| 2026-05-04 21:30 | 58.50376 | 6.19836 | 7954 ft | 224 kts | 309° |
| 2026-05-04 21:31 | 58.52469 | 6.15485 | 7450 ft | 220 kts | 309° |
| 2026-05-04 21:31 | 58.53499 | 6.13341 | 7219 ft | 218 kts | 309° |
| 2026-05-04 21:31 | 58.54519 | 6.11220 | 7004 ft | 214 kts | 309° |
| 2026-05-04 21:32 | 58.55524 | 6.09128 | 6750 ft | 214 kts | 309° |
| 2026-05-04 21:32 | 58.56528 | 6.07034 | 6522 ft | 213 kts | 310° |
| 2026-05-04 21:32 | 58.57526 | 6.04949 | 6256 ft | 212 kts | 310° |
| 2026-05-04 21:32 | 58.58515 | 6.02881 | 6035 ft | 211 kts | 310° |
| 2026-05-04 21:33 | 58.59522 | 6.00774 | 5794 ft | 219 kts | 310° |
| 2026-05-04 21:33 | 58.60564 | 5.98586 | 5543 ft | 226 kts | 311° |
| 2026-05-04 21:33 | 58.61630 | 5.96350 | 5283 ft | 227 kts | 311° |
| 2026-05-04 21:33 | 58.62688 | 5.94130 | 5042 ft | 223 kts | 311° |
| 2026-05-04 21:34 | 58.63734 | 5.91934 | 4777 ft | 223 kts | 311° |
| 2026-05-04 21:34 | 58.64777 | 5.89741 | 4532 ft | 222 kts | 311° |
| 2026-05-04 21:34 | 58.65817 | 5.87553 | 4259 ft | 221 kts | 312° |
| 2026-05-04 21:34 | 58.66847 | 5.85384 | 4012 ft | 219 kts | 313° |
| 2026-05-04 21:35 | 58.67852 | 5.83268 | 3861 ft | 214 kts | 313° |
| 2026-05-04 21:35 | 58.68849 | 5.81165 | 3763 ft | 206 kts | 313° |
| 2026-05-04 21:35 | 58.69796 | 5.79163 | 3678 ft | 198 kts | 313° |
| 2026-05-04 21:35 | 58.70687 | 5.77248 | 3588 ft | 186 kts | 309° |
| 2026-05-04 21:36 | 58.71220 | 5.75004 | 3385 ft | 182 kts | 291° |
| 2026-05-04 21:36 | 58.71611 | 5.72744 | 3318 ft | 177 kts | 294° |
| 2026-05-04 21:36 | 58.72016 | 5.70516 | 3209 ft | 176 kts | 294° |
| 2026-05-04 21:36 | 58.72424 | 5.68273 | 3006 ft | 178 kts | 294° |
| 2026-05-04 21:37 | 58.72866 | 5.66114 | 2843 ft | 171 kts | 306° |
| 2026-05-04 21:37 | 58.73791 | 5.64903 | 2755 ft | 163 kts | 347° |
| 2026-05-04 21:37 | 58.74896 | 5.64581 | 2536 ft | 159 kts | 351° |
| 2026-05-04 21:37 | 58.75949 | 5.64311 | 2337 ft | 146 kts | 351° |
| 2026-05-04 21:38 | 58.76930 | 5.64154 | 2129 ft | 138 kts | 355° |
| 2026-05-04 21:38 | 58.77885 | 5.64089 | 1959 ft | 139 kts | 356° |
| 2026-05-04 21:38 | 58.78855 | 5.64052 | 1760 ft | 140 kts | 356° |
| 2026-05-04 21:38 | 58.79827 | 5.64020 | 1549 ft | 139 kts | 357° |
| 2026-05-04 21:39 | 58.80787 | 5.63991 | 1345 ft | 135 kts | 358° |
| 2026-05-04 21:39 | 58.81696 | 5.63965 | 1160 ft | 127 kts | 356° |
| 2026-05-04 21:39 | 58.82599 | 5.63939 | 953 ft | 130 kts | 356° |
| 2026-05-04 21:39 | 58.83479 | 5.63911 | 833 ft | 127 kts | 356° |
| 2026-05-04 21:40 | 58.84393 | 5.63885 | 668 ft | 136 kts | 359° |
| 2026-05-04 21:40 | 58.85344 | 5.63879 | 481 ft | 137 kts | 358° |
| 2026-05-04 21:40 | 58.86306 | 5.63842 | 245 ft | 139 kts | 358° |
| 2026-05-04 21:40 | 58.87251 | 5.63809 | 67 ft | 132 kts | 357° |
| 2026-05-04 21:41 | 58.88104 | 5.63768 | 31 ft | 106 kts | 0° |
| 2026-05-04 21:41 | 58.88576 | 5.63758 | 28 ft | 36 kts | 0° |
| 2026-05-04 21:41 | 58.88704 | 5.63638 | 27 ft | 19 kts | 281° |
| 2026-05-04 21:41 | 58.88689 | 5.63447 | 30 ft | 12 kts | 226° |
| 2026-05-04 21:42 | 58.88608 | 5.63419 | 30 ft | 12 kts | 177° |
| 2026-05-04 21:42 | 58.88526 | 5.63425 | 30 ft | 12 kts | 179° |
| 2026-05-04 21:42 | 58.88440 | 5.63425 | 30 ft | 14 kts | 180° |
| 2026-05-04 21:42 | 58.88325 | 5.63428 | 30 ft | 18 kts | 182° |
| 2026-05-04 21:43 | 58.88270 | 5.63329 | 30 ft | 6 kts | 229° |
| 2026-05-04 21:43 | 58.88229 | 5.63307 | 29 ft | 6 kts | 184° |
| 2026-05-04 21:43 | 58.88184 | 5.63300 | 29 ft | 6 kts | 184° |
| 2026-05-04 21:43 | 58.88134 | 5.63276 | 28 ft | 9 kts | 205° |
| 2026-05-04 21:44 | 58.88076 | 5.63190 | 27 ft | 11 kts | 225° |
| 2026-05-04 21:44 | 58.88097 | 5.63082 | 27 ft | 11 kts | 317° |
| 2026-05-04 21:44 | 58.88125 | 5.63030 | 24 ft | 3 kts | 315° |
| 2026-05-04 21:44 | 58.88127 | 5.63026 | 24 ft | 0 kts | 315° |